sensor_id;sensor_type;location;lat;lon;timestamp;pressure;altitude;pressure_sealevel;temperature;humidity
75717;BME280;64333;50.138;14.332;2023-05-27T00:00:19;99040.59;;;10.98;59.07
75717;BME280;64333;50.138;14.332;2023-05-27T00:02:44;99033.94;;;10.91;59.05
75717;BME280;64333;50.138;14.332;2023-05-27T00:05:10;99035.22;;;10.80;59.99
75717;BME280;64333;50.138;14.332;2023-05-27T00:07:35;99033.47;;;10.81;60.24
75717;BME280;64333;50.138;14.332;2023-05-27T00:10:01;99035.44;;;10.73;60.52
75717;BME280;64333;50.138;14.332;2023-05-27T00:12:26;99039.94;;;10.68;60.59
75717;BME280;64333;50.138;14.332;2023-05-27T00:14:51;99036.00;;;10.56;61.30
75717;BME280;64333;50.138;14.332;2023-05-27T00:17:17;99036.09;;;10.53;61.40
75717;BME280;64333;50.138;14.332;2023-05-27T00:19:43;99029.44;;;10.46;61.79
75717;BME280;64333;50.138;14.332;2023-05-27T00:22:13;99033.94;;;10.40;61.72
75717;BME280;64333;50.138;14.332;2023-05-27T00:24:38;99034.16;;;10.34;61.34
75717;BME280;64333;50.138;14.332;2023-05-27T00:27:07;99030.94;;;10.26;62.08
75717;BME280;64333;50.138;14.332;2023-05-27T00:29:34;99026.84;;;10.19;61.63
75717;BME280;64333;50.138;14.332;2023-05-27T00:32:00;99031.22;;;10.17;61.75
75717;BME280;64333;50.138;14.332;2023-05-27T00:34:28;99025.47;;;10.09;61.82
75717;BME280;64333;50.138;14.332;2023-05-27T00:36:53;99030.63;;;10.09;61.72
75717;BME280;64333;50.138;14.332;2023-05-27T00:39:19;99032.50;;;10.02;61.67
75717;BME280;64333;50.138;14.332;2023-05-27T00:41:48;99032.66;;;9.96;62.63
75717;BME280;64333;50.138;14.332;2023-05-27T00:44:14;99024.28;;;9.90;62.47
75717;BME280;64333;50.138;14.332;2023-05-27T00:46:39;99016.81;;;9.81;62.20
75717;BME280;64333;50.138;14.332;2023-05-27T00:49:05;99022.72;;;9.84;62.08
75717;BME280;64333;50.138;14.332;2023-05-27T00:51:30;99021.88;;;9.84;62.40
75717;BME280;64333;50.138;14.332;2023-05-27T00:53:56;99027.88;;;9.84;62.49
75717;BME280;64333;50.138;14.332;2023-05-27T00:56:22;99026.13;;;9.85;62.48
75717;BME280;64333;50.138;14.332;2023-05-27T00:58:47;99017.69;;;9.80;62.44
75717;BME280;64333;50.138;14.332;2023-05-27T01:01:13;99017.56;;;9.84;62.79
75717;BME280;64333;50.138;14.332;2023-05-27T01:03:38;99024.47;;;9.82;62.99
75717;BME280;64333;50.138;14.332;2023-05-27T01:14:47;99011.56;;;9.84;63.02
75717;BME280;64333;50.138;14.332;2023-05-27T01:17:15;99015.03;;;9.83;62.99
75717;BME280;64333;50.138;14.332;2023-05-27T01:19:42;99017.75;;;9.78;63.22
75717;BME280;64333;50.138;14.332;2023-05-27T01:22:12;99021.16;;;9.79;63.64
75717;BME280;64333;50.138;14.332;2023-05-27T01:24:38;99025.56;;;9.75;63.74
75717;BME280;64333;50.138;14.332;2023-05-27T01:27:06;99021.44;;;9.70;64.24
75717;BME280;64333;50.138;14.332;2023-05-27T01:29:34;99017.34;;;9.63;64.69
75717;BME280;64333;50.138;14.332;2023-05-27T01:35:05;99023.41;;;9.60;65.04
75717;BME280;64333;50.138;14.332;2023-05-27T01:37:37;99027.78;;;9.58;65.64
75717;BME280;64333;50.138;14.332;2023-05-27T01:40:06;99021.09;;;9.51;65.36
75717;BME280;64333;50.138;14.332;2023-05-27T01:42:36;99024.50;;;9.52;65.73
75717;BME280;64333;50.138;14.332;2023-05-27T01:45:05;99023.84;;;9.45;65.98
75717;BME280;64333;50.138;14.332;2023-05-27T01:47:31;99008.72;;;9.33;66.77
75717;BME280;64333;50.138;14.332;2023-05-27T01:49:57;99019.88;;;9.34;66.65
75717;BME280;64333;50.138;14.332;2023-05-27T01:52:22;99017.34;;;9.32;66.78
75717;BME280;64333;50.138;14.332;2023-05-27T01:54:48;99017.50;;;9.26;66.94
75717;BME280;64333;50.138;14.332;2023-05-27T01:57:13;99017.47;;;9.28;67.08
75717;BME280;64333;50.138;14.332;2023-05-27T01:59:38;99015.75;;;9.27;66.96
75717;BME280;64333;50.138;14.332;2023-05-27T02:02:04;99010.56;;;9.28;66.80
75717;BME280;64333;50.138;14.332;2023-05-27T02:04:30;99006.50;;;9.20;67.18
75717;BME280;64333;50.138;14.332;2023-05-27T02:06:55;99016.81;;;9.20;67.34
75717;BME280;64333;50.138;14.332;2023-05-27T02:09:21;99013.44;;;9.18;67.54
75717;BME280;64333;50.138;14.332;2023-05-27T02:11:46;99001.69;;;9.08;67.60
75717;BME280;64333;50.138;14.332;2023-05-27T02:14:11;99010.38;;;9.04;67.79
75717;BME280;64333;50.138;14.332;2023-05-27T02:16:37;99012.94;;;9.04;68.36
75717;BME280;64333;50.138;14.332;2023-05-27T02:19:04;99015.66;;;8.99;68.72
75717;BME280;64333;50.138;14.332;2023-05-27T02:21:30;99014.09;;;8.94;68.97
75717;BME280;64333;50.138;14.332;2023-05-27T02:23:55;99023.56;;;8.92;69.35
75717;BME280;64333;50.138;14.332;2023-05-27T02:26:21;99005.22;;;8.70;69.62
75717;BME280;64333;50.138;14.332;2023-05-27T02:28:47;99024.72;;;8.80;69.98
75717;BME280;64333;50.138;14.332;2023-05-27T02:31:12;99004.44;;;8.67;70.33
75717;BME280;64333;50.138;14.332;2023-05-27T02:33:37;99024.00;;;8.75;69.93
75717;BME280;64333;50.138;14.332;2023-05-27T02:36:03;99023.97;;;8.77;70.37
75717;BME280;64333;50.138;14.332;2023-05-27T02:38:28;99027.31;;;8.80;69.94
75717;BME280;64333;50.138;14.332;2023-05-27T02:40:54;99022.25;;;8.77;69.92
75717;BME280;64333;50.138;14.332;2023-05-27T02:43:19;99022.25;;;8.77;70.23
75717;BME280;64333;50.138;14.332;2023-05-27T02:45:44;99024.06;;;8.72;70.18
75717;BME280;64333;50.138;14.332;2023-05-27T02:48:10;99013.81;;;8.71;70.67
75717;BME280;64333;50.138;14.332;2023-05-27T02:50:35;99020.00;;;8.64;71.00
75717;BME280;64333;50.138;14.332;2023-05-27T02:53:00;99013.97;;;8.63;70.89
75717;BME280;64333;50.138;14.332;2023-05-27T02:55:26;99022.59;;;8.62;71.17
75717;BME280;64333;50.138;14.332;2023-05-27T02:57:51;99022.81;;;8.55;71.12
75717;BME280;64333;50.138;14.332;2023-05-27T03:00:17;99010.19;;;8.44;71.88
75717;BME280;64333;50.138;14.332;2023-05-27T03:02:43;99029.00;;;8.46;72.03
75717;BME280;64333;50.138;14.332;2023-05-27T03:05:08;99036.84;;;8.42;72.34
75717;BME280;64333;50.138;14.332;2023-05-27T03:07:33;99030.84;;;8.40;72.63
75717;BME280;64333;50.138;14.332;2023-05-27T03:09:59;99031.84;;;8.36;72.84
75717;BME280;64333;50.138;14.332;2023-05-27T03:12:24;99029.31;;;8.33;73.17
75717;BME280;64333;50.138;14.332;2023-05-27T03:14:50;99025.97;;;8.29;73.14
75717;BME280;64333;50.138;14.332;2023-05-27T03:17:16;99030.47;;;8.20;73.87
75717;BME280;64333;50.138;14.332;2023-05-27T03:19:42;99029.63;;;8.18;73.83
75717;BME280;64333;50.138;14.332;2023-05-27T03:22:08;99033.88;;;8.22;74.29
75717;BME280;64333;50.138;14.332;2023-05-27T03:24:35;99027.81;;;8.24;74.05
75717;BME280;64333;50.138;14.332;2023-05-27T03:27:01;99020.19;;;8.18;74.36
75717;BME280;64333;50.138;14.332;2023-05-27T03:29:26;99024.50;;;8.19;74.39
75717;BME280;64333;50.138;14.332;2023-05-27T03:31:52;99028.66;;;8.23;74.45
75717;BME280;64333;50.138;14.332;2023-05-27T03:34:17;99032.88;;;8.27;74.85
75717;BME280;64333;50.138;14.332;2023-05-27T03:36:43;99022.63;;;8.26;75.16
75717;BME280;64333;50.138;14.332;2023-05-27T03:39:11;99028.50;;;8.31;74.82
75717;BME280;64333;50.138;14.332;2023-05-27T03:41:36;99040.31;;;8.41;75.14
75717;BME280;64333;50.138;14.332;2023-05-27T03:44:02;99035.94;;;8.44;74.92
75717;BME280;64333;50.138;14.332;2023-05-27T03:46:27;99041.72;;;8.54;75.13
75717;BME280;64333;50.138;14.332;2023-05-27T03:48:52;99044.19;;;8.57;75.13
75717;BME280;64333;50.138;14.332;2023-05-27T03:51:19;99040.72;;;8.58;74.76
75717;BME280;64333;50.138;14.332;2023-05-27T03:53:45;99034.63;;;8.62;74.69
75717;BME280;64333;50.138;14.332;2023-05-27T03:56:10;99041.44;;;8.64;74.48
75717;BME280;64333;50.138;14.332;2023-05-27T03:58:36;99038.75;;;8.69;74.63
75717;BME280;64333;50.138;14.332;2023-05-27T04:01:01;99037.09;;;8.66;74.54
75717;BME280;64333;50.138;14.332;2023-05-27T04:03:27;99037.69;;;8.77;74.28
75717;BME280;64333;50.138;14.332;2023-05-27T04:05:53;99048.59;;;8.87;74.29
75717;BME280;64333;50.138;14.332;2023-05-27T04:08:18;99042.50;;;8.91;73.86
75717;BME280;64333;50.138;14.332;2023-05-27T04:10:43;99041.53;;;8.95;73.29
75717;BME280;64333;50.138;14.332;2023-05-27T04:13:08;99039.72;;;8.98;72.65
75717;BME280;64333;50.138;14.332;2023-05-27T04:15:34;99051.44;;;9.10;72.74
75717;BME280;64333;50.138;14.332;2023-05-27T04:17:59;99057.41;;;9.12;73.06
75717;BME280;64333;50.138;14.332;2023-05-27T04:20:33;99056.59;;;9.10;72.87
75717;BME280;64333;50.138;14.332;2023-05-27T04:22:59;99048.06;;;9.08;72.57
75717;BME280;64333;50.138;14.332;2023-05-27T04:25:24;99055.56;;;9.17;72.72
75717;BME280;64333;50.138;14.332;2023-05-27T04:27:49;99059.66;;;9.24;73.15
75717;BME280;64333;50.138;14.332;2023-05-27T04:30:15;99062.97;;;9.29;72.90
75717;BME280;64333;50.138;14.332;2023-05-27T04:32:40;99053.63;;;9.25;72.34
75717;BME280;64333;50.138;14.332;2023-05-27T04:35:06;99067.28;;;9.28;72.64
75717;BME280;64333;50.138;14.332;2023-05-27T04:37:35;99049.97;;;9.33;72.52
75717;BME280;64333;50.138;14.332;2023-05-27T04:40:03;99073.66;;;9.46;72.50
75717;BME280;64333;50.138;14.332;2023-05-27T04:42:29;99068.31;;;9.53;72.45
75717;BME280;64333;50.138;14.332;2023-05-27T04:44:54;99070.88;;;9.55;72.44
75717;BME280;64333;50.138;14.332;2023-05-27T04:47:19;99071.50;;;9.63;72.50
75717;BME280;64333;50.138;14.332;2023-05-27T04:49:46;99068.59;;;9.75;71.96
75717;BME280;64333;50.138;14.332;2023-05-27T04:52:12;99061.53;;;9.80;71.84
75717;BME280;64333;50.138;14.332;2023-05-27T04:54:38;99065.44;;;9.93;71.13
75717;BME280;64333;50.138;14.332;2023-05-27T04:57:03;99069.50;;;10.01;71.91
75717;BME280;64333;50.138;14.332;2023-05-27T04:59:29;99071.13;;;10.07;71.78
75717;BME280;64333;50.138;14.332;2023-05-27T05:02:11;99066.56;;;10.15;71.68
75717;BME280;64333;50.138;14.332;2023-05-27T05:04:46;99062.91;;;10.22;70.53
75717;BME280;64333;50.138;14.332;2023-05-27T05:07:12;99064.31;;;10.32;70.77
75717;BME280;64333;50.138;14.332;2023-05-27T05:09:37;99064.13;;;10.38;71.42
75717;BME280;64333;50.138;14.332;2023-05-27T05:12:03;99060.44;;;10.46;71.23
75717;BME280;64333;50.138;14.332;2023-05-27T05:14:30;99048.50;;;10.42;70.50
75717;BME280;64333;50.138;14.332;2023-05-27T05:16:55;99060.88;;;10.59;70.70
75717;BME280;64333;50.138;14.332;2023-05-27T05:19:20;99064.09;;;10.67;70.71
75717;BME280;64333;50.138;14.332;2023-05-27T05:21:46;99060.13;;;10.82;70.49
75717;BME280;64333;50.138;14.332;2023-05-27T05:24:11;99070.84;;;10.71;70.72
75717;BME280;64333;50.138;14.332;2023-05-27T05:26:37;99065.97;;;10.88;70.50
75717;BME280;64333;50.138;14.332;2023-05-27T05:29:02;99069.31;;;10.91;70.64
75717;BME280;64333;50.138;14.332;2023-05-27T05:31:28;99066.38;;;11.01;70.69
75717;BME280;64333;50.138;14.332;2023-05-27T05:33:53;99067.66;;;11.14;70.26
75717;BME280;64333;50.138;14.332;2023-05-27T05:36:19;99064.66;;;11.26;70.12
75717;BME280;64333;50.138;14.332;2023-05-27T05:38:46;99052.19;;;11.37;70.15
75717;BME280;64333;50.138;14.332;2023-05-27T05:41:11;99062.66;;;11.59;69.07
75717;BME280;64333;50.138;14.332;2023-05-27T05:43:37;99059.88;;;11.65;68.51
75717;BME280;64333;50.138;14.332;2023-05-27T05:46:02;99061.84;;;11.81;69.23
75717;BME280;64333;50.138;14.332;2023-05-27T05:48:27;99070.03;;;11.92;68.50
75717;BME280;64333;50.138;14.332;2023-05-27T05:50:53;99054.06;;;12.04;68.21
75717;BME280;64333;50.138;14.332;2023-05-27T05:53:18;99070.72;;;12.20;68.29
75717;BME280;64333;50.138;14.332;2023-05-27T05:55:43;99070.38;;;12.29;68.70
75717;BME280;64333;50.138;14.332;2023-05-27T05:58:09;99068.00;;;12.46;68.32
75717;BME280;64333;50.138;14.332;2023-05-27T06:00:35;99079.56;;;12.59;67.58
75717;BME280;64333;50.138;14.332;2023-05-27T06:03:00;99072.50;;;12.63;67.33
75717;BME280;64333;50.138;14.332;2023-05-27T06:05:27;99066.72;;;12.78;65.49
75717;BME280;64333;50.138;14.332;2023-05-27T06:07:53;99078.13;;;12.95;64.65
75717;BME280;64333;50.138;14.332;2023-05-27T06:10:18;99087.88;;;13.10;63.39
75717;BME280;64333;50.138;14.332;2023-05-27T06:12:44;99085.03;;;13.16;63.88
75717;BME280;64333;50.138;14.332;2023-05-27T06:15:10;99085.28;;;13.30;63.85
75717;BME280;64333;50.138;14.332;2023-05-27T06:17:35;99095.88;;;13.46;63.07
75717;BME280;64333;50.138;14.332;2023-05-27T06:20:01;99087.50;;;13.59;63.28
75717;BME280;64333;50.138;14.332;2023-05-27T06:22:26;99088.56;;;13.74;62.90
75717;BME280;64333;50.138;14.332;2023-05-27T06:24:52;99075.97;;;13.85;62.04
75717;BME280;64333;50.138;14.332;2023-05-27T06:27:17;99087.00;;;13.90;61.20
75717;BME280;64333;50.138;14.332;2023-05-27T06:29:43;99095.16;;;14.01;61.38
75717;BME280;64333;50.138;14.332;2023-05-27T06:32:09;99090.81;;;14.01;60.52
75717;BME280;64333;50.138;14.332;2023-05-27T06:34:35;99091.94;;;14.14;61.08
75717;BME280;64333;50.138;14.332;2023-05-27T06:37:03;99090.56;;;14.26;60.30
75717;BME280;64333;50.138;14.332;2023-05-27T06:39:28;99094.56;;;14.51;60.20
75717;BME280;64333;50.138;14.332;2023-05-27T06:41:54;99084.75;;;14.75;59.96
75717;BME280;64333;50.138;14.332;2023-05-27T06:44:19;99086.50;;;14.93;58.96
75717;BME280;64333;50.138;14.332;2023-05-27T06:46:44;99091.50;;;15.14;57.67
75717;BME280;64333;50.138;14.332;2023-05-27T06:49:10;99087.06;;;14.99;58.42
75717;BME280;64333;50.138;14.332;2023-05-27T06:51:36;99080.25;;;15.31;59.04
75717;BME280;64333;50.138;14.332;2023-05-27T06:54:01;99080.13;;;15.51;58.56
75717;BME280;64333;50.138;14.332;2023-05-27T06:56:26;99081.31;;;15.78;58.48
75717;BME280;64333;50.138;14.332;2023-05-27T06:58:52;99081.03;;;15.99;56.92
75717;BME280;64333;50.138;14.332;2023-05-27T07:01:17;99087.78;;;16.19;55.48
75717;BME280;64333;50.138;14.332;2023-05-27T07:03:43;99069.47;;;16.36;54.84
75717;BME280;64333;50.138;14.332;2023-05-27T07:06:08;99072.69;;;16.56;54.10
75717;BME280;64333;50.138;14.332;2023-05-27T07:08:33;99069.47;;;16.82;52.53
75717;BME280;64333;50.138;14.332;2023-05-27T07:10:59;99075.94;;;16.91;52.25
75717;BME280;64333;50.138;14.332;2023-05-27T07:13:25;99075.47;;;17.13;51.93
75717;BME280;64333;50.138;14.332;2023-05-27T07:15:51;99077.47;;;17.24;50.79
75717;BME280;64333;50.138;14.332;2023-05-27T07:18:16;99077.09;;;17.45;51.08
75717;BME280;64333;50.138;14.332;2023-05-27T07:20:42;99080.09;;;17.53;50.40
75717;BME280;64333;50.138;14.332;2023-05-27T07:23:07;99075.00;;;17.66;49.13
75717;BME280;64333;50.138;14.332;2023-05-27T07:25:33;99075.66;;;17.69;49.28
75717;BME280;64333;50.138;14.332;2023-05-27T07:27:59;99068.72;;;17.25;48.28
75717;BME280;64333;50.138;14.332;2023-05-27T07:30:24;99071.03;;;17.45;49.53
75717;BME280;64333;50.138;14.332;2023-05-27T07:32:51;99074.91;;;17.81;47.92
75717;BME280;64333;50.138;14.332;2023-05-27T07:35:16;99081.53;;;18.01;48.46
75717;BME280;64333;50.138;14.332;2023-05-27T07:37:42;99074.63;;;18.00;47.81
75717;BME280;64333;50.138;14.332;2023-05-27T07:40:08;99077.69;;;17.92;46.87
75717;BME280;64333;50.138;14.332;2023-05-27T07:42:33;99077.13;;;18.29;47.21
75717;BME280;64333;50.138;14.332;2023-05-27T07:44:58;99076.66;;;18.37;47.09
75717;BME280;64333;50.138;14.332;2023-05-27T07:47:24;99075.09;;;18.75;45.40
75717;BME280;64333;50.138;14.332;2023-05-27T07:49:50;99072.25;;;18.92;44.72
75717;BME280;64333;50.138;14.332;2023-05-27T07:52:16;99075.63;;;19.06;44.35
75717;BME280;64333;50.138;14.332;2023-05-27T07:54:41;99084.00;;;18.99;43.02
75717;BME280;64333;50.138;14.332;2023-05-27T07:57:06;99072.50;;;19.01;43.98
75717;BME280;64333;50.138;14.332;2023-05-27T07:59:32;99061.09;;;19.54;42.87
75717;BME280;64333;50.138;14.332;2023-05-27T08:01:58;99058.59;;;19.90;41.31
75717;BME280;64333;50.138;14.332;2023-05-27T08:04:23;99062.97;;;20.02;41.64
75717;BME280;64333;50.138;14.332;2023-05-27T08:06:49;99064.78;;;20.14;40.14
75717;BME280;64333;50.138;14.332;2023-05-27T08:09:14;99067.91;;;20.67;40.05
75717;BME280;64333;50.138;14.332;2023-05-27T08:11:40;99067.34;;;20.87;38.67
75717;BME280;64333;50.138;14.332;2023-05-27T08:14:06;99055.28;;;21.19;38.82
75717;BME280;64333;50.138;14.332;2023-05-27T08:16:32;99048.88;;;21.69;38.09
75717;BME280;64333;50.138;14.332;2023-05-27T08:18:58;99056.69;;;21.47;37.50
75717;BME280;64333;50.138;14.332;2023-05-27T08:21:23;99056.75;;;21.00;35.85
75717;BME280;64333;50.138;14.332;2023-05-27T08:23:48;99053.88;;;20.79;36.97
75717;BME280;64333;50.138;14.332;2023-05-27T08:26:14;99048.53;;;20.81;37.13
75717;BME280;64333;50.138;14.332;2023-05-27T08:28:39;99044.41;;;21.13;35.88
75717;BME280;64333;50.138;14.332;2023-05-27T08:31:05;99050.00;;;21.08;36.76
75717;BME280;64333;50.138;14.332;2023-05-27T08:33:31;99037.41;;;21.01;37.25
75717;BME280;64333;50.138;14.332;2023-05-27T08:35:56;99037.75;;;21.20;37.39
75717;BME280;64333;50.138;14.332;2023-05-27T08:38:22;99034.75;;;21.24;36.52
75717;BME280;64333;50.138;14.332;2023-05-27T08:40:47;99030.53;;;21.56;37.21
75717;BME280;64333;50.138;14.332;2023-05-27T08:43:13;99034.69;;;22.15;36.70
75717;BME280;64333;50.138;14.332;2023-05-27T08:45:39;99035.94;;;22.65;34.29
75717;BME280;64333;50.138;14.332;2023-05-27T08:48:09;99036.16;;;23.04;33.56
75717;BME280;64333;50.138;14.332;2023-05-27T08:50:35;99023.25;;;23.33;32.18
75717;BME280;64333;50.138;14.332;2023-05-27T08:53:02;99037.97;;;23.04;33.54
75717;BME280;64333;50.138;14.332;2023-05-27T08:55:29;99031.53;;;22.97;33.48
75717;BME280;64333;50.138;14.332;2023-05-27T08:57:56;99026.47;;;23.05;34.35
75717;BME280;64333;50.138;14.332;2023-05-27T09:00:22;99024.59;;;22.96;33.38
75717;BME280;64333;50.138;14.332;2023-05-27T09:02:48;99017.53;;;22.54;33.00
75717;BME280;64333;50.138;14.332;2023-05-27T09:05:14;99034.28;;;22.64;33.41
75717;BME280;64333;50.138;14.332;2023-05-27T09:07:41;99027.25;;;23.89;31.39
75717;BME280;64333;50.138;14.332;2023-05-27T09:10:07;99025.03;;;24.91;29.68
75717;BME280;64333;50.138;14.332;2023-05-27T09:12:34;99011.31;;;25.81;28.22
75717;BME280;64333;50.138;14.332;2023-05-27T09:14:59;99011.22;;;24.59;29.55
75717;BME280;64333;50.138;14.332;2023-05-27T09:17:27;99012.88;;;24.60;29.34
75717;BME280;64333;50.138;14.332;2023-05-27T09:19:53;99011.75;;;25.67;28.35
75717;BME280;64333;50.138;14.332;2023-05-27T09:22:23;99013.72;;;26.11;27.37
75717;BME280;64333;50.138;14.332;2023-05-27T09:24:52;99017.91;;;26.14;27.08
75717;BME280;64333;50.138;14.332;2023-05-27T09:27:18;99004.16;;;26.55;27.99
75717;BME280;64333;50.138;14.332;2023-05-27T09:29:43;99006.34;;;27.21;26.40
75717;BME280;64333;50.138;14.332;2023-05-27T09:32:09;99013.31;;;26.06;27.30
75717;BME280;64333;50.138;14.332;2023-05-27T09:34:38;99003.19;;;27.69;26.14
75717;BME280;64333;50.138;14.332;2023-05-27T09:37:04;99006.63;;;28.12;25.12
75717;BME280;64333;50.138;14.332;2023-05-27T09:39:32;99013.59;;;28.39;25.00
75717;BME280;64333;50.138;14.332;2023-05-27T09:42:00;99017.75;;;28.16;24.07
75717;BME280;64333;50.138;14.332;2023-05-27T09:44:31;99014.19;;;27.74;24.30
75717;BME280;64333;50.138;14.332;2023-05-27T09:47:04;99011.75;;;28.39;22.57
75717;BME280;64333;50.138;14.332;2023-05-27T09:49:32;98995.97;;;29.35;22.30
75717;BME280;64333;50.138;14.332;2023-05-27T09:51:58;98993.47;;;29.18;22.50
75717;BME280;64333;50.138;14.332;2023-05-27T09:54:25;99005.38;;;28.90;23.69
75717;BME280;64333;50.138;14.332;2023-05-27T09:56:51;99000.63;;;30.58;20.97
75717;BME280;64333;50.138;14.332;2023-05-27T09:59:17;98986.16;;;31.65;20.23
75717;BME280;64333;50.138;14.332;2023-05-27T10:01:45;98990.44;;;32.17;19.91
75717;BME280;64333;50.138;14.332;2023-05-27T10:04:11;98985.22;;;31.58;20.33
75717;BME280;64333;50.138;14.332;2023-05-27T10:06:39;98974.38;;;32.67;20.59
75717;BME280;64333;50.138;14.332;2023-05-27T10:09:06;98982.78;;;32.29;19.69
75717;BME280;64333;50.138;14.332;2023-05-27T10:11:33;98976.50;;;33.56;18.52
75717;BME280;64333;50.138;14.332;2023-05-27T10:14:02;98976.94;;;33.32;18.50
75717;BME280;64333;50.138;14.332;2023-05-27T10:16:28;98968.03;;;34.20;17.57
75717;BME280;64333;50.138;14.332;2023-05-27T10:18:54;98971.47;;;34.48;17.87
75717;BME280;64333;50.138;14.332;2023-05-27T10:21:22;98970.25;;;34.51;18.05
75717;BME280;64333;50.138;14.332;2023-05-27T10:24:02;98960.94;;;35.78;16.91
75717;BME280;64333;50.138;14.332;2023-05-27T10:26:39;98949.53;;;36.84;16.02
75717;BME280;64333;50.138;14.332;2023-05-27T10:29:07;98952.59;;;38.28;14.93
75717;BME280;64333;50.138;14.332;2023-05-27T10:31:33;98938.75;;;38.42;14.39
75717;BME280;64333;50.138;14.332;2023-05-27T10:33:59;98956.34;;;37.91;14.37
75717;BME280;64333;50.138;14.332;2023-05-27T10:36:26;98951.13;;;38.32;14.24
75717;BME280;64333;50.138;14.332;2023-05-27T10:41:40;98945.41;;;38.87;14.00
75717;BME280;64333;50.138;14.332;2023-05-27T10:44:06;98947.63;;;38.61;14.60
75717;BME280;64333;50.138;14.332;2023-05-27T10:46:42;98942.09;;;39.95;13.12
75717;BME280;64333;50.138;14.332;2023-05-27T10:49:23;98935.44;;;41.09;12.37
75717;BME280;64333;50.138;14.332;2023-05-27T10:51:48;98929.63;;;40.73;12.41
75717;BME280;64333;50.138;14.332;2023-05-27T10:54:15;98931.19;;;40.30;12.65
75717;BME280;64333;50.138;14.332;2023-05-27T10:56:48;98932.09;;;39.38;12.93
75717;BME280;64333;50.138;14.332;2023-05-27T10:59:20;98936.66;;;38.08;13.54
75717;BME280;64333;50.138;14.332;2023-05-27T11:01:51;98930.69;;;37.15;14.19
75717;BME280;64333;50.138;14.332;2023-05-27T11:04:17;98938.84;;;37.93;13.62
75717;BME280;64333;50.138;14.332;2023-05-27T11:06:58;98927.75;;;38.37;12.83
75717;BME280;64333;50.138;14.332;2023-05-27T11:09:27;98929.47;;;40.24;11.84
75717;BME280;64333;50.138;14.332;2023-05-27T11:11:55;98920.59;;;39.77;11.77
75717;BME280;64333;50.138;14.332;2023-05-27T11:14:20;98909.66;;;39.49;12.31
75717;BME280;64333;50.138;14.332;2023-05-27T11:16:47;98910.75;;;40.22;12.55
75717;BME280;64333;50.138;14.332;2023-05-27T11:19:13;98906.44;;;41.43;10.59
75717;BME280;64333;50.138;14.332;2023-05-27T11:21:44;98912.03;;;41.91;10.40
75717;BME280;64333;50.138;14.332;2023-05-27T11:24:19;98899.88;;;40.62;11.00
75717;BME280;64333;50.138;14.332;2023-05-27T11:26:46;98901.44;;;41.18;11.92
75717;BME280;64333;50.138;14.332;2023-05-27T11:29:15;98895.19;;;41.01;11.80
75717;BME280;64333;50.138;14.332;2023-05-27T11:31:41;98891.44;;;40.74;11.21
75717;BME280;64333;50.138;14.332;2023-05-27T11:34:14;98901.44;;;40.07;11.53
75717;BME280;64333;50.138;14.332;2023-05-27T11:36:40;98894.69;;;41.04;10.33
75717;BME280;64333;50.138;14.332;2023-05-27T11:39:05;98895.47;;;39.93;11.03
75717;BME280;64333;50.138;14.332;2023-05-27T11:41:35;98890.75;;;40.12;10.20
75717;BME280;64333;50.138;14.332;2023-05-27T11:44:07;98893.50;;;38.67;11.03
75717;BME280;64333;50.138;14.332;2023-05-27T11:46:41;98886.59;;;40.21;10.62
75717;BME280;64333;50.138;14.332;2023-05-27T11:49:09;98876.09;;;40.80;10.16
75717;BME280;64333;50.138;14.332;2023-05-27T11:51:40;98879.03;;;39.14;11.09
75717;BME280;64333;50.138;14.332;2023-05-27T11:54:06;98872.69;;;38.09;11.81
75717;BME280;64333;50.138;14.332;2023-05-27T11:56:32;98872.78;;;37.42;12.54
75717;BME280;64333;50.138;14.332;2023-05-27T11:58:58;98874.97;;;37.09;12.04
75717;BME280;64333;50.138;14.332;2023-05-27T12:01:24;98874.34;;;37.74;11.74
75717;BME280;64333;50.138;14.332;2023-05-27T12:03:51;98865.78;;;37.77;11.98
75717;BME280;64333;50.138;14.332;2023-05-27T12:06:16;98866.47;;;39.43;11.30
75717;BME280;64333;50.138;14.332;2023-05-27T12:08:42;98865.69;;;40.05;10.64
75717;BME280;64333;50.138;14.332;2023-05-27T12:11:08;98874.25;;;38.16;10.17
75717;BME280;64333;50.138;14.332;2023-05-27T12:13:33;98872.00;;;37.95;11.05
75717;BME280;64333;50.138;14.332;2023-05-27T12:15:59;98866.22;;;38.69;11.05
75717;BME280;64333;50.138;14.332;2023-05-27T12:18:25;98876.25;;;38.21;10.73
75717;BME280;64333;50.138;14.332;2023-05-27T12:20:50;98866.34;;;38.62;9.89
75717;BME280;64333;50.138;14.332;2023-05-27T12:23:16;98866.97;;;40.02;9.29
75717;BME280;64333;50.138;14.332;2023-05-27T12:25:42;98862.91;;;40.56;8.16
75717;BME280;64333;50.138;14.332;2023-05-27T12:28:08;98867.25;;;40.29;8.74
75717;BME280;64333;50.138;14.332;2023-05-27T12:30:34;98864.34;;;40.47;9.07
75717;BME280;64333;50.138;14.332;2023-05-27T12:33:01;98866.13;;;40.53;8.95
75717;BME280;64333;50.138;14.332;2023-05-27T12:35:27;98854.56;;;39.67;9.81
75717;BME280;64333;50.138;14.332;2023-05-27T12:37:52;98846.69;;;41.05;9.69
75717;BME280;64333;50.138;14.332;2023-05-27T12:40:18;98850.66;;;39.86;9.92
75717;BME280;64333;50.138;14.332;2023-05-27T12:42:43;98847.09;;;39.34;10.75
75717;BME280;64333;50.138;14.332;2023-05-27T12:45:09;98844.97;;;39.36;10.36
75717;BME280;64333;50.138;14.332;2023-05-27T12:47:35;98844.47;;;40.02;10.15
75717;BME280;64333;50.138;14.332;2023-05-27T12:50:01;98852.28;;;41.91;9.21
75717;BME280;64333;50.138;14.332;2023-05-27T12:52:27;98850.22;;;41.76;9.66
75717;BME280;64333;50.138;14.332;2023-05-27T12:54:53;98838.06;;;42.05;8.80
75717;BME280;64333;50.138;14.332;2023-05-27T12:57:19;98846.00;;;41.85;8.20
75717;BME280;64333;50.138;14.332;2023-05-27T12:59:44;98839.47;;;41.86;8.93
75717;BME280;64333;50.138;14.332;2023-05-27T13:02:09;98837.31;;;42.31;9.09